createdAt,value
2018-03-24T00:02:09.104Z,71.80
2018-03-24T00:04:35.347Z,71.80
2018-03-24T00:07:02.933Z,71.70
2018-03-24T00:09:34.820Z,71.90
2018-03-24T00:12:03.039Z,72.00
2018-03-24T00:14:29.463Z,72.00
2018-03-24T00:16:56.459Z,72.10
2018-03-24T00:19:22.679Z,72.10
2018-03-24T00:21:48.984Z,72.50
2018-03-24T00:24:15.220Z,72.10
2018-03-24T00:26:41.684Z,72.40
2018-03-24T00:29:07.916Z,72.30
2018-03-24T00:31:34.175Z,71.90
2018-03-24T00:34:01.172Z,71.90
2018-03-24T00:36:27.453Z,71.80
2018-03-24T00:38:53.687Z,71.40
2018-03-24T00:41:20.472Z,71.60
2018-03-24T00:43:46.744Z,71.70
2018-03-24T00:46:13.064Z,71.50
2018-03-24T00:48:39.312Z,71.50
2018-03-24T00:51:05.692Z,71.50
2018-03-24T00:53:31.936Z,71.20
2018-03-24T00:55:58.279Z,71.90
2018-03-24T00:58:24.519Z,72.00
2018-03-24T01:00:50.919Z,72.40
2018-03-24T01:03:17.201Z,71.80
2018-03-24T01:05:43.491Z,72.00
2018-03-24T01:08:09.743Z,72.30
2018-03-24T01:10:36.004Z,72.30
2018-03-24T01:13:02.261Z,72.70
2018-03-24T01:15:28.768Z,72.30
2018-03-24T01:17:55.020Z,72.90
2018-03-24T01:20:21.347Z,73.10
2018-03-24T01:22:47.567Z,73.00
2018-03-24T01:25:13.917Z,72.90
2018-03-24T01:27:40.150Z,72.90
2018-03-24T01:30:06.599Z,73.00
2018-03-24T01:32:39.015Z,73.00
2018-03-24T01:35:05.600Z,72.80
2018-03-24T01:37:31.871Z,72.70
2018-03-24T01:39:58.123Z,72.70
2018-03-24T01:42:24.388Z,73.00
2018-03-24T01:44:50.731Z,72.70
2018-03-24T01:47:16.947Z,72.90
2018-03-24T01:49:43.935Z,73.20
2018-03-24T01:52:10.185Z,73.20
2018-03-24T01:54:36.422Z,73.20
2018-03-24T01:57:02.698Z,73.60
2018-03-24T01:59:28.927Z,73.70
2018-03-24T02:01:55.179Z,73.70
2018-03-24T02:04:21.416Z,73.80
2018-03-24T02:06:47.663Z,74.10
2018-03-24T02:09:13.925Z,75.10
2018-03-24T02:11:40.183Z,75.10
2018-03-24T02:14:06.499Z,75.50
2018-03-24T02:16:32.768Z,76.00
2018-03-24T02:18:59.004Z,76.00
2018-03-24T02:21:26.168Z,76.00
2018-03-24T02:23:52.699Z,76.00
2018-03-24T02:26:18.963Z,75.70
2018-03-24T02:28:45.255Z,75.30
2018-03-24T02:31:11.512Z,75.30
2018-03-24T02:33:37.993Z,75.10
2018-03-24T02:36:04.256Z,75.10
2018-03-24T02:38:30.551Z,75.30
2018-03-24T02:40:57.538Z,75.80
2018-03-24T02:43:23.788Z,75.60
2018-03-24T02:45:50.034Z,75.80
2018-03-24T02:48:16.303Z,76.10
2018-03-24T02:50:42.548Z,76.30
2018-03-24T02:53:08.807Z,76.60
2018-03-24T02:55:35.031Z,76.80
2018-03-24T02:58:01.288Z,77.30
2018-03-24T03:00:27.688Z,77.70
2018-03-24T03:02:54.521Z,78.10
2018-03-24T03:05:20.770Z,78.50
2018-03-24T03:07:47.050Z,78.90
2018-03-24T03:10:13.319Z,79.30
2018-03-24T03:12:39.652Z,79.10
2018-03-24T03:15:05.920Z,79.30
2018-03-24T03:17:32.473Z,79.40
2018-03-24T03:19:58.743Z,79.50
2018-03-24T03:22:25.051Z,79.40
2018-03-24T03:24:51.571Z,79.40
2018-03-24T03:27:17.800Z,79.20
2018-03-24T03:29:44.071Z,79.40
2018-03-24T03:32:17.230Z,79.20
2018-03-24T03:34:43.474Z,79.20
2018-03-24T03:37:09.757Z,79.00
2018-03-24T03:39:36.020Z,79.50
2018-03-24T03:42:03.015Z,79.40
2018-03-24T03:44:29.364Z,79.30
2018-03-24T03:46:55.625Z,79.40
2018-03-24T03:49:25.500Z,79.70
2018-03-24T03:51:51.759Z,79.70
2018-03-24T03:54:18.079Z,79.70
2018-03-24T03:56:44.336Z,79.60
2018-03-24T03:59:11.900Z,79.60
2018-03-24T04:01:38.225Z,79.60
2018-03-24T04:04:04.467Z,79.60
2018-03-24T04:06:30.852Z,79.90
2018-03-24T04:08:57.095Z,80.00
2018-03-24T04:11:23.493Z,79.80
2018-03-24T04:13:49.708Z,79.70
2018-03-24T04:16:15.981Z,79.80
2018-03-24T04:18:42.225Z,79.80
2018-03-24T04:21:08.772Z,80.00
2018-03-24T04:23:34.999Z,79.80
2018-03-24T04:26:01.244Z,80.00
2018-03-24T04:28:27.495Z,79.90
2018-03-24T04:30:54.693Z,79.70
2018-03-24T04:33:20.968Z,79.80
2018-03-24T04:35:47.208Z,79.90
2018-03-24T04:38:14.442Z,80.00
2018-03-24T04:40:40.752Z,79.80
2018-03-24T04:43:07.007Z,79.80
2018-03-24T04:45:33.632Z,80.00
2018-03-24T04:48:00.858Z,80.20
2018-03-24T04:50:30.828Z,80.20
2018-03-24T04:52:58.951Z,80.30
2018-03-24T04:55:26.251Z,80.70
2018-03-24T04:57:53.970Z,81.20
2018-03-24T05:00:20.339Z,81.20
2018-03-24T05:02:46.592Z,81.30
2018-03-24T05:05:12.840Z,81.30
2018-03-24T05:07:39.848Z,81.20
2018-03-24T05:10:06.126Z,81.20
2018-03-24T05:12:33.364Z,81.10
2018-03-24T05:15:02.381Z,80.50
2018-03-24T05:17:29.750Z,80.60
2018-03-24T05:19:56.806Z,80.60
2018-03-24T05:22:24.423Z,80.60
2018-03-24T05:24:50.779Z,80.10
2018-03-24T05:27:19.899Z,80.40
2018-03-24T05:29:46.970Z,80.60
2018-03-24T05:32:14.222Z,80.40
2018-03-24T05:34:40.473Z,80.30
2018-03-24T05:37:08.369Z,79.80
2018-03-24T05:39:36.148Z,80.50
2018-03-24T05:42:04.114Z,80.40
2018-03-24T05:44:31.292Z,80.70
2018-03-24T05:46:57.704Z,80.60
2018-03-24T05:49:24.764Z,80.20
2018-03-24T05:51:51.208Z,80.80
2018-03-24T05:54:17.795Z,80.50
2018-03-24T05:56:44.854Z,81.00
2018-03-24T05:59:11.839Z,81.00
2018-03-24T06:01:38.109Z,81.00
2018-03-24T06:04:06.101Z,81.00
2018-03-24T06:06:34.066Z,80.80
2018-03-24T06:09:01.125Z,80.80
2018-03-24T06:11:27.459Z,80.80
2018-03-24T06:13:54.506Z,80.80
2018-03-24T06:16:25.313Z,80.50
2018-03-24T06:18:52.510Z,80.70
2018-03-24T06:21:20.417Z,80.60
2018-03-24T06:23:46.680Z,80.70
2018-03-24T06:26:14.788Z,80.20
2018-03-24T06:28:42.117Z,80.20
2018-03-24T06:31:26.367Z,79.80
2018-03-24T06:33:52.728Z,79.80
2018-03-24T06:36:20.233Z,79.10
2018-03-24T06:38:46.507Z,78.90
2018-03-24T06:41:12.748Z,78.10
2018-03-24T06:43:39.764Z,76.30
2018-03-24T06:46:06.035Z,76.30
2018-03-24T06:48:32.308Z,76.80
2018-03-24T06:50:58.789Z,77.30
2018-03-24T06:53:25.878Z,77.50
2018-03-24T06:55:52.156Z,77.50
2018-03-24T06:58:18.472Z,77.60
2018-03-24T07:00:44.719Z,77.80
2018-03-24T07:03:11.050Z,78.00
2018-03-24T07:05:37.489Z,77.80
2018-03-24T07:08:04.498Z,78.50
2018-03-24T07:10:32.770Z,78.50
2018-03-24T07:12:59.004Z,77.90
2018-03-24T07:15:25.355Z,77.70
2018-03-24T07:17:51.607Z,77.60
2018-03-24T07:20:18.095Z,77.30
2018-03-24T07:22:44.416Z,77.50
2018-03-24T07:25:11.538Z,77.30
2018-03-24T07:27:41.045Z,77.20
2018-03-24T07:30:08.193Z,76.90
2018-03-24T07:32:35.451Z,76.90
2018-03-24T07:35:01.740Z,77.00
2018-03-24T07:37:27.987Z,77.00
2018-03-24T07:39:54.278Z,76.30
2018-03-24T07:42:20.518Z,76.00
2018-03-24T07:44:46.747Z,75.80
2018-03-24T07:47:13.053Z,75.70
2018-03-24T07:49:40.044Z,75.80
2018-03-24T07:52:06.339Z,75.80
2018-03-24T07:54:34.132Z,75.80
2018-03-24T07:57:02.019Z,75.80
2018-03-24T07:59:28.315Z,75.70
2018-03-24T08:01:54.695Z,74.90
2018-03-24T08:04:21.972Z,74.70
2018-03-24T08:06:48.224Z,75.30
2018-03-24T08:09:15.238Z,74.80
2018-03-24T08:11:42.275Z,74.10
2018-03-24T08:14:08.552Z,74.00
2018-03-24T08:16:35.328Z,73.70
2018-03-24T08:19:01.560Z,73.80
2018-03-24T08:21:27.824Z,73.20
2018-03-24T08:23:54.052Z,72.90
2018-03-24T08:26:20.280Z,72.60
2018-03-24T08:28:46.535Z,72.20
2018-03-24T08:31:13.567Z,72.60
2018-03-24T08:33:39.851Z,72.60
2018-03-24T08:36:06.107Z,72.60
2018-03-24T08:38:32.368Z,72.90
2018-03-24T08:40:58.592Z,72.30
2018-03-24T08:43:26.676Z,71.70
2018-03-24T08:45:52.908Z,70.90
2018-03-24T08:48:19.219Z,71.20
2018-03-24T08:50:45.453Z,70.40
2018-03-24T08:53:11.775Z,70.20
2018-03-24T08:55:38.000Z,70.60
2018-03-24T08:58:04.688Z,70.80
2018-03-24T09:00:31.691Z,70.60
2018-03-24T09:02:58.700Z,70.70
2018-03-24T09:05:24.972Z,70.70
2018-03-24T09:07:51.228Z,71.00
2018-03-24T09:10:17.522Z,70.10
2018-03-24T09:12:43.840Z,69.20
2018-03-24T09:15:10.109Z,70.50
2018-03-24T09:17:36.348Z,71.00
2018-03-24T09:20:02.628Z,69.40
2018-03-24T09:22:28.880Z,68.10
2018-03-24T09:24:55.123Z,68.30
2018-03-24T09:27:21.790Z,68.80
2018-03-24T09:29:48.103Z,68.20
2018-03-24T09:32:14.628Z,67.60
2018-03-24T09:34:41.103Z,67.30
2018-03-24T09:37:07.889Z,66.70
2018-03-24T09:39:35.718Z,65.90
2018-03-24T09:42:02.025Z,65.30
2018-03-24T09:44:28.595Z,64.70
2018-03-24T09:46:55.264Z,66.00
2018-03-24T09:49:22.479Z,65.40
2018-03-24T09:51:49.625Z,64.30
2018-03-24T09:54:15.865Z,64.00
2018-03-24T09:56:42.258Z,62.90
2018-03-24T09:59:09.304Z,63.10
2018-03-24T10:01:35.616Z,63.50
2018-03-24T10:04:01.907Z,63.50
2018-03-24T10:06:28.921Z,60.90
2018-03-24T10:08:55.151Z,60.90
2018-03-24T10:11:21.488Z,59.10
2018-03-24T10:13:47.803Z,59.70
2018-03-24T10:16:15.784Z,58.00
2018-03-24T10:18:42.588Z,58.00
2018-03-24T10:24:17.699Z,57.10
2018-03-24T10:26:43.954Z,56.20
2018-03-24T10:29:10.230Z,56.80
2018-03-24T10:31:36.540Z,55.80
2018-03-24T10:34:03.236Z,56.10
2018-03-24T10:36:29.476Z,56.30
2018-03-24T10:38:56.141Z,55.80
2018-03-24T10:41:22.398Z,55.90
2018-03-24T10:43:48.664Z,55.80
2018-03-24T10:46:15.013Z,54.50
2018-03-24T10:48:41.875Z,53.60
2018-03-24T10:51:08.182Z,54.50
2018-03-24T10:53:35.452Z,53.70
2018-03-24T10:56:01.717Z,53.40
2018-03-24T10:58:28.007Z,53.10
2018-03-24T11:01:01.132Z,52.70
2018-03-24T11:03:27.387Z,51.60
2018-03-24T11:05:53.640Z,50.10
2018-03-24T11:08:19.901Z,51.00
2018-03-24T11:10:46.167Z,50.00
2018-03-24T11:13:12.449Z,49.60
2018-03-24T11:15:39.531Z,49.10
2018-03-24T11:18:05.838Z,49.70
2018-03-24T11:20:32.111Z,50.20
2018-03-24T11:22:58.811Z,48.00
2018-03-24T11:25:25.071Z,46.50
2018-03-24T11:27:51.320Z,47.50
2018-03-24T11:30:17.684Z,48.80
2018-03-24T11:32:43.926Z,48.20
2018-03-24T11:35:10.199Z,48.10
2018-03-24T11:37:51.348Z,47.20
2018-03-24T11:40:17.714Z,45.90
2018-03-24T11:42:44.983Z,45.50
2018-03-24T11:45:11.259Z,45.50
2018-03-24T11:47:37.495Z,45.20
2018-03-24T11:50:03.756Z,43.80
2018-03-24T11:52:30.736Z,42.90
2018-03-24T11:54:57.120Z,42.90
2018-03-24T11:57:23.384Z,44.10
2018-03-24T11:59:50.347Z,42.50
2018-03-24T12:02:17.326Z,43.50
2018-03-24T12:04:43.566Z,43.50
2018-03-24T12:07:09.829Z,44.60
2018-03-24T12:09:36.799Z,42.40
2018-03-24T12:12:03.396Z,42.40
2018-03-24T12:14:29.635Z,43.20
2018-03-24T12:16:56.047Z,41.10
2018-03-24T12:19:22.293Z,42.50
2018-03-24T12:21:49.222Z,42.70
2018-03-24T12:24:15.479Z,41.40
2018-03-24T12:26:42.220Z,41.10
2018-03-24T12:29:08.531Z,40.30
2018-03-24T12:31:34.780Z,41.20
2018-03-24T12:34:01.060Z,40.40
2018-03-24T12:36:27.411Z,40.40
2018-03-24T12:38:53.684Z,40.20
2018-03-24T12:41:20.075Z,38.70
2018-03-24T12:43:46.324Z,38.90
2018-03-24T12:46:12.825Z,39.30
2018-03-24T12:48:39.091Z,40.00
2018-03-24T12:51:05.345Z,41.40
2018-03-24T12:53:31.629Z,39.30
2018-03-24T12:55:58.684Z,40.20
2018-03-24T12:58:24.915Z,39.10
2018-03-24T13:00:52.064Z,38.90
2018-03-24T13:03:18.320Z,38.70
2018-03-24T13:05:44.591Z,38.50
2018-03-24T13:08:10.827Z,37.30
2018-03-24T13:10:37.129Z,37.50
2018-03-24T13:13:03.402Z,38.60
2018-03-24T13:15:29.917Z,37.90
2018-03-24T13:17:56.295Z,38.90
2018-03-24T13:20:22.608Z,37.90
2018-03-24T13:22:48.848Z,39.80
2018-03-24T13:25:15.140Z,38.80
2018-03-24T13:27:42.421Z,37.90
2018-03-24T13:30:08.660Z,37.20
2018-03-24T13:32:35.433Z,37.00
2018-03-24T13:35:01.700Z,36.20
2018-03-24T13:37:28.303Z,36.70
2018-03-24T13:39:54.564Z,36.60
2018-03-24T13:42:21.621Z,36.40
2018-03-24T13:44:48.457Z,36.40
2018-03-24T13:47:14.756Z,36.10
2018-03-24T13:49:40.991Z,36.40
2018-03-24T13:52:07.271Z,36.20
2018-03-24T13:54:33.543Z,35.90
2018-03-24T13:57:07.732Z,36.70
2018-03-24T13:59:34.096Z,36.60
2018-03-24T14:02:00.353Z,37.10
2018-03-24T14:04:26.639Z,36.40
2018-03-24T14:06:52.893Z,37.70
2018-03-24T14:09:19.144Z,37.00
2018-03-24T14:11:46.367Z,35.60
2018-03-24T14:14:12.673Z,35.90
2018-03-24T14:16:39.003Z,34.30
2018-03-24T14:19:06.160Z,34.10
2018-03-24T14:21:32.462Z,33.90
2018-03-24T14:23:58.931Z,31.90
2018-03-24T14:26:25.196Z,29.30
2018-03-24T14:28:52.209Z,27.80
2018-03-24T14:31:18.429Z,26.80
2018-03-24T14:33:44.678Z,26.30
2018-03-24T14:36:10.897Z,25.10
2018-03-24T14:38:37.159Z,24.70
2018-03-24T14:41:04.596Z,24.80
2018-03-24T14:43:33.157Z,24.10
2018-03-24T14:45:59.415Z,24.40
2018-03-24T14:48:25.704Z,24.60
2018-03-24T14:50:52.027Z,24.60
2018-03-24T14:53:19.209Z,24.10
2018-03-24T14:55:45.535Z,23.30
2018-03-24T14:58:11.795Z,23.60
2018-03-24T15:00:38.048Z,23.60
2018-03-24T15:03:05.081Z,23.10
2018-03-24T15:05:31.363Z,23.20
2018-03-24T15:07:57.648Z,24.00
2018-03-24T15:10:24.023Z,24.00
2018-03-24T15:12:50.832Z,24.90
2018-03-24T15:15:17.076Z,23.90
2018-03-24T15:17:43.365Z,23.30
2018-03-24T15:20:10.224Z,23.30
2018-03-24T15:22:37.320Z,23.40
2018-03-24T15:25:03.605Z,22.90
2018-03-24T15:27:29.884Z,21.90
2018-03-24T15:30:08.349Z,22.30
2018-03-24T15:32:46.831Z,22.30
2018-03-24T15:35:21.280Z,22.20
2018-03-24T15:37:49.347Z,22.60
2018-03-24T15:40:15.592Z,22.60
2018-03-24T15:42:41.849Z,23.10
2018-03-24T15:45:08.088Z,23.10
2018-03-24T15:47:34.412Z,23.60
2018-03-24T15:50:00.635Z,24.20
2018-03-24T15:52:27.047Z,23.90
2018-03-24T15:54:53.283Z,23.60
2018-03-24T15:57:19.536Z,23.50
2018-03-24T15:59:45.828Z,23.20
2018-03-24T16:02:12.939Z,22.70
2018-03-24T16:04:39.211Z,22.70
2018-03-24T16:07:06.209Z,23.50
2018-03-24T16:09:32.467Z,23.50
2018-03-24T16:11:58.880Z,24.20
2018-03-24T16:14:25.123Z,24.50
2018-03-24T16:16:51.423Z,24.80
2018-03-24T16:19:17.704Z,24.70
2018-03-24T16:21:44.697Z,24.10
2018-03-24T16:24:11.013Z,24.10
2018-03-24T16:26:37.734Z,24.10
2018-03-24T16:29:04.024Z,24.50
2018-03-24T16:31:30.327Z,24.80
2018-03-24T16:33:56.591Z,24.40
2018-03-24T16:36:22.895Z,25.10
2018-03-24T16:38:49.152Z,25.10
2018-03-24T16:41:15.459Z,25.30
2018-03-24T16:43:41.715Z,25.90
2018-03-24T16:46:07.996Z,26.20
2018-03-24T16:48:34.240Z,25.90
2018-03-24T16:51:00.538Z,25.50
2018-03-24T16:53:26.848Z,25.90
2018-03-24T16:55:53.627Z,26.10
2018-03-24T16:58:19.872Z,26.10
2018-03-24T17:00:46.155Z,26.30
2018-03-24T17:03:12.403Z,26.20
2018-03-24T17:05:38.663Z,26.40
2018-03-24T17:08:05.618Z,26.50
2018-03-24T17:10:31.961Z,27.80
2018-03-24T17:12:58.272Z,27.80
2018-03-24T17:15:24.523Z,27.00
2018-03-24T17:17:50.786Z,27.30
2018-03-24T17:20:17.012Z,27.90
2018-03-24T17:22:43.367Z,28.60
2018-03-24T17:25:09.699Z,29.30
2018-03-24T17:27:35.948Z,30.10
2018-03-24T17:30:06.464Z,35.30
2018-03-24T17:32:32.909Z,35.00
2018-03-24T17:34:59.891Z,37.50
2018-03-24T17:37:26.207Z,37.50
2018-03-24T17:39:52.448Z,38.70
2018-03-24T17:42:18.723Z,39.60
2018-03-24T17:44:45.723Z,41.50
2018-03-24T17:47:12.067Z,41.40
2018-03-24T17:49:38.506Z,41.60
2018-03-24T17:52:04.691Z,42.90
2018-03-24T17:54:30.980Z,43.30
2018-03-24T17:56:57.336Z,44.30
2018-03-24T17:59:24.393Z,44.50
2018-03-24T18:01:50.732Z,45.20
2018-03-24T18:04:17.034Z,45.50
2018-03-24T18:06:43.631Z,45.70
2018-03-24T18:09:09.948Z,46.30
2018-03-24T18:11:36.931Z,46.70
2018-03-24T18:14:03.255Z,46.70
2018-03-24T18:16:29.496Z,47.20
2018-03-24T18:18:55.749Z,47.60
2018-03-24T18:21:22.917Z,47.70
2018-03-24T18:23:50.332Z,47.80
2018-03-24T18:26:16.607Z,48.40
2018-03-24T18:28:42.827Z,49.30
2018-03-24T18:31:09.369Z,48.70
2018-03-24T18:33:35.627Z,49.00
2018-03-24T18:36:01.911Z,49.60
2018-03-24T18:38:28.167Z,49.80
2018-03-24T18:40:54.439Z,49.40
2018-03-24T18:43:20.848Z,50.00
2018-03-24T18:45:47.117Z,49.80
2018-03-24T18:48:13.392Z,49.30
2018-03-24T18:50:39.816Z,50.10
2018-03-24T18:53:07.280Z,50.30
2018-03-24T18:55:39.567Z,51.70
2018-03-24T18:58:05.807Z,51.70
2018-03-24T19:00:32.069Z,52.00
2018-03-24T19:02:58.336Z,52.60
2018-03-24T19:05:24.608Z,52.10
2018-03-24T19:07:51.612Z,52.60
2018-03-24T19:10:18.059Z,52.50
2018-03-24T19:12:44.327Z,52.40
2018-03-24T19:15:10.987Z,51.60
2018-03-24T19:17:37.327Z,52.10
2018-03-24T19:20:03.688Z,52.40
2018-03-24T19:22:30.188Z,52.40
2018-03-24T19:24:57.183Z,53.00
2018-03-24T19:27:26.476Z,52.90
2018-03-24T19:29:52.745Z,52.80
2018-03-24T19:32:19.051Z,52.70
2018-03-24T19:34:45.316Z,52.90
2018-03-24T19:37:11.719Z,52.50
2018-03-24T19:39:38.019Z,52.80
2018-03-24T19:42:05.532Z,53.40
2018-03-24T19:44:31.858Z,53.70
2018-03-24T19:47:01.684Z,53.60
2018-03-24T19:49:28.418Z,54.00
2018-03-24T19:51:56.562Z,54.40
2018-03-24T19:54:22.992Z,54.20
2018-03-24T19:56:49.233Z,54.70
2018-03-24T19:59:15.519Z,54.40
2018-03-24T20:01:41.948Z,54.30
2018-03-24T20:04:08.946Z,55.30
2018-03-24T20:06:35.375Z,55.10
2018-03-24T20:09:01.644Z,55.60
2018-03-24T20:11:28.663Z,55.60
2018-03-24T20:13:55.085Z,55.50
2018-03-24T20:16:21.372Z,55.40
2018-03-24T20:18:48.468Z,56.20
2018-03-24T20:21:15.513Z,56.20
2018-03-24T20:23:41.771Z,56.10
2018-03-24T20:26:08.037Z,56.00
2018-03-24T20:28:35.025Z,56.10
2018-03-24T20:31:01.406Z,56.10
2018-03-24T20:33:27.759Z,56.50
2018-03-24T20:35:54.775Z,56.50
2018-03-24T20:38:21.067Z,56.90
2018-03-24T20:40:47.327Z,56.60
2018-03-24T20:43:13.643Z,56.50
2018-03-24T20:45:40.468Z,57.20
2018-03-24T20:48:06.761Z,57.70
2018-03-24T20:50:33.020Z,58.00
2018-03-24T20:53:01.339Z,58.00
2018-03-24T20:55:27.673Z,58.00
2018-03-24T20:57:53.966Z,58.60
2018-03-24T21:00:20.240Z,58.70
2018-03-24T21:02:46.492Z,58.80
2018-03-24T21:05:12.828Z,59.50
2018-03-24T21:07:39.092Z,60.10
2018-03-24T21:10:05.900Z,60.50
2018-03-24T21:12:32.348Z,60.70
2018-03-24T21:14:59.393Z,61.00
2018-03-24T21:17:25.647Z,61.00
2018-03-24T21:19:52.696Z,61.40
2018-03-24T21:22:19.723Z,61.30
2018-03-24T21:24:46.015Z,61.30
2018-03-24T21:27:12.296Z,61.30
2018-03-24T21:29:39.343Z,61.50
2018-03-24T21:32:11.348Z,61.60
2018-03-24T21:34:38.652Z,61.80
2018-03-24T21:37:04.931Z,62.10
2018-03-24T21:39:31.816Z,62.40
2018-03-24T21:41:58.159Z,62.80
2018-03-24T21:44:25.011Z,62.70
2018-03-24T21:46:51.347Z,63.00
2018-03-24T21:49:17.600Z,63.00
2018-03-24T21:51:44.332Z,63.10
2018-03-24T21:54:10.971Z,63.70
2018-03-24T21:56:37.296Z,63.70
2018-03-24T21:59:03.583Z,63.60
2018-03-24T22:01:29.911Z,63.70
2018-03-24T22:03:56.172Z,63.60
2018-03-24T22:06:23.330Z,64.60
2018-03-24T22:08:51.302Z,64.20
2018-03-24T22:11:17.587Z,64.00
2018-03-24T22:13:43.903Z,64.00
2018-03-24T22:16:11.121Z,64.10
2018-03-24T22:18:37.868Z,64.00
2018-03-24T22:21:04.108Z,64.70
2018-03-24T22:23:30.456Z,65.30
2018-03-24T22:25:57.443Z,65.30
2018-03-24T22:28:24.909Z,65.30
2018-03-24T22:30:52.804Z,65.90
2018-03-24T22:33:22.840Z,66.30
2018-03-24T22:35:49.968Z,66.40
2018-03-24T22:38:16.252Z,66.70
2018-03-24T22:40:43.336Z,66.60
2018-03-24T22:43:10.583Z,66.40
2018-03-24T22:45:37.924Z,66.20
2018-03-24T22:48:04.240Z,65.70
2018-03-24T22:50:30.535Z,66.60
2018-03-24T22:52:56.779Z,66.70
2018-03-24T22:55:24.638Z,67.00
2018-03-24T22:57:52.133Z,66.90
2018-03-24T23:00:18.491Z,66.70
2018-03-24T23:02:44.744Z,66.60
2018-03-24T23:05:11.008Z,66.50
2018-03-24T23:07:37.339Z,66.60
2018-03-24T23:10:03.649Z,67.00
2018-03-24T23:12:29.916Z,67.00
2018-03-24T23:14:56.197Z,67.00
2018-03-24T23:17:22.458Z,67.20
2018-03-24T23:19:49.524Z,67.50
2018-03-24T23:22:15.808Z,67.50
2018-03-24T23:24:42.056Z,67.60
2018-03-24T23:27:08.380Z,67.60
2018-03-24T23:29:35.588Z,67.90
2018-03-24T23:32:02.303Z,67.90
2018-03-24T23:34:29.031Z,67.90
2018-03-24T23:36:55.286Z,68.20
2018-03-24T23:39:22.275Z,68.70
2018-03-24T23:41:50.688Z,68.80
2018-03-24T23:44:18.126Z,68.80
2018-03-24T23:46:44.411Z,69.00
2018-03-24T23:49:10.765Z,69.20
2018-03-24T23:51:37.076Z,69.20
2018-03-24T23:54:03.379Z,69.30
2018-03-24T23:56:29.632Z,69.50
2018-03-24T23:58:55.907Z,69.40
